createdAt,value
2018-11-06T09:13:30.391Z,2668
2018-11-06T09:14:02.454Z,2708
2018-11-06T09:14:34.506Z,2744
2018-11-06T09:15:06.590Z,2760
2018-11-06T09:15:38.612Z,2812
2018-11-06T09:16:10.698Z,2836
2018-11-06T09:16:43.367Z,2836
2018-11-06T09:17:15.434Z,2864
2018-11-06T09:17:47.508Z,2888
2018-11-06T09:18:19.582Z,2928
2018-11-06T09:18:51.627Z,2908
2018-11-06T09:19:23.726Z,2912
2018-11-06T09:19:55.787Z,2892
2018-11-06T09:20:27.903Z,2888
2018-11-06T09:20:59.988Z,2880
2018-11-06T09:21:32.074Z,2784
2018-11-06T09:22:04.161Z,2896
2018-11-06T09:22:36.218Z,2944
2018-11-06T09:23:08.252Z,2940
2018-11-06T09:23:40.342Z,2948
2018-11-06T09:24:12.443Z,2916
2018-11-06T09:24:44.522Z,2860
2018-11-06T09:25:16.605Z,2832
2018-11-06T09:25:48.690Z,2764
2018-11-06T09:26:20.722Z,2748
2018-11-06T09:26:52.803Z,2776
2018-11-06T09:27:24.873Z,2792
2018-11-06T09:27:56.952Z,2776
2018-11-06T09:28:29.041Z,2752
2018-11-06T09:29:01.118Z,2752
2018-11-06T09:29:33.206Z,2760
2018-11-06T09:30:05.297Z,2836
2018-11-06T09:30:37.358Z,2900
2018-11-06T09:31:09.781Z,3016
2018-11-06T09:31:41.700Z,3096
2018-11-06T09:32:13.790Z,3208
2018-11-06T09:32:45.848Z,3128
2018-11-06T09:33:17.877Z,3092
2018-11-06T09:33:49.939Z,3184
2018-11-06T09:34:22.040Z,3232
2018-11-06T09:34:54.098Z,3244
2018-11-06T09:35:26.145Z,3236
2018-11-06T09:35:58.223Z,3084
2018-11-06T09:36:30.300Z,3152
2018-11-06T09:37:02.391Z,3136
2018-11-06T09:37:34.439Z,3228
2018-11-06T09:38:06.499Z,3360
2018-11-06T09:38:38.588Z,3316
2018-11-06T09:39:10.683Z,3248
2018-11-06T09:39:42.738Z,3436
2018-11-06T09:40:14.797Z,3428
2018-11-06T09:40:46.885Z,3484
2018-11-06T09:41:19.051Z,3436
2018-11-06T09:41:51.117Z,3268
2018-11-06T09:42:23.160Z,3396
2018-11-06T09:42:55.422Z,3328
2018-11-06T09:43:27.477Z,3364
2018-11-06T09:43:59.533Z,3420
2018-11-06T09:45:03.945Z,3472
2018-11-06T09:45:36.280Z,3444
2018-11-06T09:46:08.470Z,3096
2018-11-06T09:46:40.561Z,3188
2018-11-06T09:47:12.592Z,3352
2018-11-06T09:47:44.686Z,3352
2018-11-06T09:48:16.753Z,3284
2018-11-06T09:48:48.880Z,3140
2018-11-06T09:49:20.894Z,2852
2018-11-06T09:49:52.923Z,2964
2018-11-06T09:50:25.360Z,3072
2018-11-06T09:50:57.501Z,3088
2018-11-06T09:51:29.527Z,3156
2018-11-06T09:52:01.802Z,3108
2018-11-06T09:52:33.807Z,2924
2018-11-06T09:53:05.849Z,3040
2018-11-06T09:53:37.900Z,2888
2018-11-06T09:54:10.001Z,2872
2018-11-06T09:54:42.032Z,2684
2018-11-06T09:55:14.102Z,2728
2018-11-06T09:55:46.180Z,2756
2018-11-06T09:56:18.275Z,2692
2018-11-06T09:56:50.329Z,2684
2018-11-06T09:57:22.419Z,2888
2018-11-06T09:57:54.502Z,2772
2018-11-06T09:58:26.502Z,2788
2018-11-06T09:58:59.372Z,2860
2018-11-06T09:59:31.397Z,2920
2018-11-06T10:00:03.552Z,2944
2018-11-06T10:00:35.588Z,3096
2018-11-06T10:01:07.864Z,3044
2018-11-06T10:01:40.393Z,2924
2018-11-06T10:02:12.444Z,2768
2018-11-06T10:02:44.504Z,2876
2018-11-06T10:03:16.543Z,3092
2018-11-06T10:03:48.621Z,3176
2018-11-06T10:04:20.696Z,3004
2018-11-06T10:04:52.787Z,3040
2018-11-06T10:05:24.867Z,3032
2018-11-06T10:05:56.935Z,3136
2018-11-06T10:06:29.549Z,3072
2018-11-06T10:07:01.735Z,3004
2018-11-06T10:07:33.646Z,2896
2018-11-06T10:08:05.711Z,2784
2018-11-06T10:08:37.782Z,2664
2018-11-06T10:09:09.918Z,2376
2018-11-06T10:09:41.943Z,2556
2018-11-06T10:10:14.033Z,3068
2018-11-06T10:10:46.133Z,3148
2018-11-06T10:11:18.223Z,3156
2018-11-06T10:11:50.386Z,3104
2018-11-06T10:12:22.490Z,3056
2018-11-06T10:12:54.556Z,3108
2018-11-06T10:13:26.579Z,2872
2018-11-06T10:13:58.649Z,2664
2018-11-06T10:14:30.724Z,2656
2018-11-06T10:15:02.726Z,2516
2018-11-06T10:15:34.880Z,2440
2018-11-06T10:16:06.904Z,2444
2018-11-06T10:16:38.967Z,2400
2018-11-06T10:17:11.053Z,2248
2018-11-06T10:17:43.131Z,2336
2018-11-06T10:18:15.240Z,2292
2018-11-06T10:18:47.320Z,2444
2018-11-06T10:19:19.401Z,2212
2018-11-06T10:19:51.489Z,2268
2018-11-06T10:20:23.580Z,2244
2018-11-06T10:20:55.567Z,2236
2018-11-06T10:21:27.622Z,2136
2018-11-06T10:21:59.652Z,2060
2018-11-06T10:22:31.725Z,2072
2018-11-06T10:23:03.781Z,2072
2018-11-06T10:23:35.865Z,2080
2018-11-06T10:24:07.891Z,2100
2018-11-06T10:24:39.936Z,2152
2018-11-06T10:25:11.963Z,2212
2018-11-06T10:25:44.048Z,2256
2018-11-06T10:26:16.120Z,2320
2018-11-06T10:26:48.236Z,2356
2018-11-06T10:27:20.298Z,2364
2018-11-06T10:27:52.363Z,2368
2018-11-06T10:28:24.415Z,2388
2018-11-06T10:28:56.468Z,2404
2018-11-06T10:29:28.538Z,2404
2018-11-06T10:30:00.605Z,2436
2018-11-06T10:30:32.678Z,2440
2018-11-06T10:31:04.761Z,2444
2018-11-06T10:31:36.807Z,2464
2018-11-06T10:32:08.873Z,2492
2018-11-06T10:32:40.981Z,2516
2018-11-06T10:33:13.047Z,2536
2018-11-06T10:33:45.088Z,2544
2018-11-06T10:34:17.149Z,2568
2018-11-06T10:34:49.188Z,2600
2018-11-06T10:35:21.270Z,2628
2018-11-06T10:35:53.350Z,2636
2018-11-06T10:36:25.423Z,2652
2018-11-06T10:36:57.497Z,2632
2018-11-06T10:37:29.598Z,2584
2018-11-06T10:38:01.767Z,2584
2018-11-06T10:38:33.872Z,2608
2018-11-06T10:39:05.911Z,2592
2018-11-06T10:39:37.976Z,2572
2018-11-06T10:40:10.040Z,2564
2018-11-06T10:40:42.104Z,2560
2018-11-06T10:41:14.188Z,2548
2018-11-06T10:41:46.243Z,2532
2018-11-06T10:42:18.302Z,2524
2018-11-06T10:42:50.320Z,2512
2018-11-06T10:43:22.384Z,2496
2018-11-06T10:43:54.427Z,2480
2018-11-06T10:44:26.546Z,2468
2018-11-06T10:44:58.609Z,2448
2018-11-06T10:45:30.675Z,2432
2018-11-06T10:46:02.760Z,2416
2018-11-06T10:46:34.850Z,2408
2018-11-06T10:47:06.902Z,2404
2018-11-06T10:47:38.925Z,2408
2018-11-06T10:48:11.008Z,2412
2018-11-06T10:48:43.067Z,2408
2018-11-06T10:49:15.088Z,2404
2018-11-06T10:49:47.158Z,2416
2018-11-06T10:50:19.246Z,2428
2018-11-06T10:50:51.331Z,2428
2018-11-06T10:51:23.381Z,2424
2018-11-06T10:51:55.567Z,2432
2018-11-06T10:52:27.509Z,2440
2018-11-06T10:52:59.590Z,2452
2018-11-06T10:53:31.673Z,2468
2018-11-06T10:54:03.753Z,2480
2018-11-06T10:54:35.831Z,2492
2018-11-06T10:55:07.881Z,2516
2018-11-06T10:55:39.971Z,2536
2018-11-06T10:56:12.009Z,2556
2018-11-06T10:56:44.083Z,2576
2018-11-06T10:57:16.139Z,2596
2018-11-06T10:57:48.218Z,2616
2018-11-06T10:58:20.306Z,2636
2018-11-06T10:58:52.340Z,2652
2018-11-06T10:59:24.408Z,2676
2018-11-06T10:59:56.449Z,2692
2018-11-06T11:00:28.548Z,2712
2018-11-06T11:01:00.606Z,2728
2018-11-06T11:01:32.753Z,2752
2018-11-06T11:02:04.833Z,2776
2018-11-06T11:02:36.894Z,2800
2018-11-06T11:03:08.963Z,2828
2018-11-06T11:03:41.303Z,2852
2018-11-06T11:04:13.561Z,2872
2018-11-06T11:04:46.274Z,2908
2018-11-06T11:05:18.416Z,2944
2018-11-06T11:05:50.509Z,2952
2018-11-06T11:06:22.570Z,2944
2018-11-06T11:06:54.652Z,2952
2018-11-06T11:07:26.718Z,2976
2018-11-06T11:07:58.792Z,2996
2018-11-06T11:08:31.772Z,3020
2018-11-06T11:09:03.870Z,3040
2018-11-06T11:09:35.960Z,3076
2018-11-06T11:10:08.014Z,3108
2018-11-06T11:10:40.094Z,3140
2018-11-06T11:11:12.124Z,3172
2018-11-06T11:11:44.192Z,3204
2018-11-06T11:12:16.255Z,3228
2018-11-06T11:12:48.256Z,3248
2018-11-06T11:13:20.432Z,3272
2018-11-06T11:13:52.410Z,3292
2018-11-06T11:14:24.472Z,3312
2018-11-06T11:14:56.537Z,3336
2018-11-06T11:15:28.634Z,3368
2018-11-06T11:16:00.684Z,3396
2018-11-06T11:16:32.766Z,3420
2018-11-06T11:17:04.817Z,3448
2018-11-06T11:17:36.893Z,3468
2018-11-06T11:18:08.916Z,3500
2018-11-06T11:18:40.956Z,3544
2018-11-06T11:19:12.991Z,3628
2018-11-06T11:19:45.043Z,3728
2018-11-06T11:20:18.118Z,3876
2018-11-06T11:20:50.124Z,3992
2018-11-06T11:21:22.182Z,4104
2018-11-06T11:21:54.239Z,4432
2018-11-06T11:22:26.310Z,4656
2018-11-06T11:22:58.402Z,4644
2018-11-06T11:23:30.485Z,4520
2018-11-06T11:24:02.532Z,4716
2018-11-06T11:24:34.610Z,4908
2018-11-06T11:25:06.676Z,4832
2018-11-06T11:25:38.879Z,4884
2018-11-06T11:26:11.005Z,5016
2018-11-06T11:26:43.044Z,4864
2018-11-06T11:27:15.127Z,4704
2018-11-06T11:27:47.183Z,4508
2018-11-06T11:28:19.244Z,4412
2018-11-06T11:29:11.424Z,4572
2018-11-06T11:29:43.490Z,4640
2018-11-06T11:30:15.560Z,4576
2018-11-06T11:30:47.640Z,4728
2018-11-06T11:31:19.724Z,4952
2018-11-06T11:31:51.810Z,5044
2018-11-06T11:32:23.858Z,5116
2018-11-06T11:32:55.868Z,5024
2018-11-06T11:33:27.970Z,4940
2018-11-06T11:34:00.087Z,4880
2018-11-06T11:34:32.136Z,4740
2018-11-06T11:35:04.181Z,4724
2018-11-06T11:35:36.271Z,4764
2018-11-06T11:36:08.330Z,4776
2018-11-06T11:36:40.441Z,4832
2018-11-06T11:37:12.494Z,5024
2018-11-06T11:37:44.907Z,5172
2018-11-06T11:38:16.860Z,5204
2018-11-06T11:38:48.903Z,5076
2018-11-06T11:39:20.979Z,5060
2018-11-06T11:39:53.041Z,5132
2018-11-06T11:40:25.109Z,5212
2018-11-06T11:40:57.135Z,5144
2018-11-06T11:41:29.186Z,5076
2018-11-06T11:42:01.284Z,5024
2018-11-06T11:42:33.348Z,5028
2018-11-06T11:43:05.406Z,5068
2018-11-06T11:43:37.449Z,5088
2018-11-06T11:44:09.491Z,5036
2018-11-06T11:44:41.554Z,5000
2018-11-06T11:45:13.615Z,4996
2018-11-06T11:45:45.785Z,5016
2018-11-06T11:46:17.793Z,5136
2018-11-06T11:46:49.840Z,5284
2018-11-06T11:47:21.891Z,5204
2018-11-06T11:47:53.926Z,5088
2018-11-06T11:48:25.942Z,5024
2018-11-06T11:48:58.006Z,5096
2018-11-06T11:49:30.053Z,5340
2018-11-06T11:50:02.090Z,5272
2018-11-06T11:50:34.164Z,5228
2018-11-06T11:51:06.273Z,5076
2018-11-06T11:51:38.287Z,4836
2018-11-06T11:52:10.360Z,4948
2018-11-06T11:52:42.404Z,5204
2018-11-06T11:53:14.483Z,5684
2018-11-06T11:53:46.561Z,5860
2018-11-06T11:54:18.682Z,5880
2018-11-06T11:54:50.685Z,5924
2018-11-06T11:55:22.749Z,5948
2018-11-06T11:55:54.809Z,6032
2018-11-06T11:56:26.884Z,6048
2018-11-06T11:56:58.979Z,6028
2018-11-06T11:57:30.998Z,5740
2018-11-06T11:58:03.084Z,5740
2018-11-06T11:58:35.179Z,5988
2018-11-06T11:59:07.237Z,5864
2018-11-06T11:59:39.315Z,5784
2018-11-06T12:00:11.560Z,5692
2018-11-06T12:00:43.712Z,5628
2018-11-06T12:01:15.737Z,5648
2018-11-06T12:01:47.818Z,5692
2018-11-06T12:02:20.117Z,5652
2018-11-06T12:02:52.079Z,5788
2018-11-06T12:03:24.103Z,5912
2018-11-06T12:03:56.166Z,5724
2018-11-06T12:04:28.245Z,5616
2018-11-06T12:05:00.348Z,5632
2018-11-06T12:05:32.419Z,5728
2018-11-06T12:06:04.519Z,5884
2018-11-06T12:06:36.587Z,5840
2018-11-06T12:07:08.649Z,5788
2018-11-06T12:07:40.710Z,5716
2018-11-06T12:08:12.788Z,5800
2018-11-06T12:08:44.854Z,5864
2018-11-06T12:09:16.923Z,5900
2018-11-06T12:09:48.994Z,5716
2018-11-06T12:10:21.029Z,5604
2018-11-06T12:10:53.132Z,5628
2018-11-06T12:11:25.207Z,5560
2018-11-06T12:11:57.224Z,5604
2018-11-06T12:12:29.241Z,5720
2018-11-06T12:13:01.309Z,5800
2018-11-06T12:13:33.345Z,5740
2018-11-06T12:14:05.540Z,5592
2018-11-06T12:14:37.647Z,5448
2018-11-06T12:15:09.740Z,5448
2018-11-06T12:15:41.790Z,5488
2018-11-06T12:16:13.811Z,5548
2018-11-06T12:16:45.893Z,5600
2018-11-06T12:17:17.967Z,5604
2018-11-06T12:17:50.055Z,5708
2018-11-06T12:18:22.304Z,5808
2018-11-06T12:18:54.427Z,5912
2018-11-06T12:19:26.510Z,6028
2018-11-06T12:19:58.578Z,6124
2018-11-06T12:20:30.678Z,6176
2018-11-06T12:21:02.706Z,6288
2018-11-06T12:21:34.799Z,6292
2018-11-06T12:22:06.895Z,6244
2018-11-06T12:22:38.976Z,6260
2018-11-06T12:23:11.061Z,6260
2018-11-06T12:23:43.162Z,6352
2018-11-06T12:24:15.356Z,6460
2018-11-06T12:24:47.567Z,6532
2018-11-06T12:25:20.591Z,6400
2018-11-06T12:25:53.748Z,6444
2018-11-06T12:26:25.686Z,6652
2018-11-06T12:26:57.758Z,6812
2018-11-06T12:27:29.845Z,7312
2018-11-06T12:28:01.961Z,7608
2018-11-06T12:28:34.021Z,7588
2018-11-06T12:29:06.099Z,7512
2018-11-06T12:29:38.234Z,7452
2018-11-06T12:30:10.320Z,7640
2018-11-06T12:30:42.415Z,7752
2018-11-06T12:31:14.525Z,8084
2018-11-06T12:31:46.614Z,8908
2018-11-06T12:32:18.672Z,10052
2018-11-06T12:32:50.774Z,10780
2018-11-06T12:33:22.811Z,11424
2018-11-06T12:33:54.897Z,10808
2018-11-06T12:34:26.988Z,10032
2018-11-06T12:34:59.012Z,10244
2018-11-06T12:35:31.068Z,11464
2018-11-06T12:36:03.131Z,12444
2018-11-06T12:36:35.355Z,12540
2018-11-06T12:37:07.438Z,13156
2018-11-06T12:37:39.367Z,14212
2018-11-06T12:38:11.457Z,14372
2018-11-06T12:38:43.442Z,13644
2018-11-06T12:39:15.534Z,12216
2018-11-06T12:39:47.584Z,12224
2018-11-06T12:40:19.655Z,12276
2018-11-06T12:40:51.743Z,11448
2018-11-06T12:41:23.894Z,10208
2018-11-06T12:41:55.995Z,9856
2018-11-06T12:42:28.040Z,9264
2018-11-06T12:43:00.364Z,8960
2018-11-06T12:43:32.397Z,8144
2018-11-06T12:44:04.472Z,7196
2018-11-06T12:44:36.542Z,6680
2018-11-06T12:45:08.615Z,6412
2018-11-06T12:45:40.699Z,6352
2018-11-06T12:46:12.781Z,6432
2018-11-06T12:46:44.818Z,6480
2018-11-06T12:47:16.893Z,6296
2018-11-06T12:47:48.940Z,6108
2018-11-06T12:48:21.026Z,6096
2018-11-06T12:48:53.088Z,6136
2018-11-06T12:49:25.151Z,6132
2018-11-06T12:49:57.201Z,6132
2018-11-06T12:50:29.405Z,6192
2018-11-06T12:51:01.410Z,6180
2018-11-06T12:51:33.479Z,6284
2018-11-06T12:52:05.563Z,6488
2018-11-06T12:52:37.643Z,6480
2018-11-06T12:53:09.705Z,6444
2018-11-06T12:53:41.764Z,6524
2018-11-06T12:54:13.800Z,6852
2018-11-06T12:54:45.841Z,7120
2018-11-06T12:55:17.924Z,7208
2018-11-06T12:55:49.974Z,7108
2018-11-06T12:56:22.143Z,6828
2018-11-06T12:56:54.146Z,6608
2018-11-06T12:57:26.236Z,6492
2018-11-06T12:57:58.294Z,6328
2018-11-06T12:58:30.369Z,6008
2018-11-06T12:59:02.436Z,5708
2018-11-06T12:59:34.519Z,5416
2018-11-06T13:00:06.566Z,5172
2018-11-06T13:00:38.631Z,5040
2018-11-06T13:01:10.704Z,4996
2018-11-06T13:01:42.754Z,4944
2018-11-06T13:02:14.845Z,4872
2018-11-06T13:02:46.903Z,4812
2018-11-06T13:03:19.029Z,4732
2018-11-06T13:03:51.083Z,4656
2018-11-06T13:04:23.164Z,4604
2018-11-06T13:04:55.238Z,4560
2018-11-06T13:05:27.325Z,4492
2018-11-06T13:05:59.350Z,4412
2018-11-06T13:06:31.368Z,4368
2018-11-06T13:07:03.648Z,4364
2018-11-06T13:07:35.718Z,4340
2018-11-06T13:08:07.791Z,4284
2018-11-06T13:08:39.841Z,4216
2018-11-06T13:09:11.906Z,4180
2018-11-06T13:09:44.024Z,4196
2018-11-06T13:10:16.054Z,4232
2018-11-06T13:10:48.109Z,4276
2018-11-06T13:11:20.143Z,4232
2018-11-06T13:11:52.248Z,4212
2018-11-06T13:12:24.321Z,4148
2018-11-06T13:12:56.397Z,4076
2018-11-06T13:13:28.448Z,3980
2018-11-06T13:14:00.571Z,3876
2018-11-06T13:14:32.598Z,3792
2018-11-06T13:15:04.599Z,3720
2018-11-06T13:15:36.994Z,3660
2018-11-06T13:16:09.043Z,3628
2018-11-06T13:16:41.026Z,3600
2018-11-06T13:17:13.255Z,3572
2018-11-06T13:17:45.188Z,3556
2018-11-06T13:18:17.255Z,3548
2018-11-06T13:18:49.359Z,3560
2018-11-06T13:19:21.391Z,3576
2018-11-06T13:19:53.477Z,3576
2018-11-06T13:20:25.570Z,3588
2018-11-06T13:20:57.627Z,3588
2018-11-06T13:21:29.694Z,3596
2018-11-06T13:22:01.746Z,3624
2018-11-06T13:22:33.793Z,3668
2018-11-06T13:23:05.885Z,3692
2018-11-06T13:23:37.982Z,3696
2018-11-06T13:24:10.037Z,3744
2018-11-06T13:24:42.109Z,3776
2018-11-06T13:25:14.148Z,3812
2018-11-06T13:25:46.266Z,3828
2018-11-06T13:26:18.365Z,3824
2018-11-06T13:26:50.426Z,3860
2018-11-06T13:27:22.503Z,3932
2018-11-06T13:27:54.609Z,4036
2018-11-06T13:28:26.637Z,4188
2018-11-06T13:28:58.796Z,4368
2018-11-06T13:29:30.967Z,4644
2018-11-06T13:30:03.006Z,4720
2018-11-06T13:30:35.672Z,4640
2018-11-06T13:31:07.715Z,4428
2018-11-06T13:31:39.806Z,4288
2018-11-06T13:32:11.998Z,4328
2018-11-06T13:32:44.049Z,4436
2018-11-06T13:33:16.137Z,4464
2018-11-06T13:33:48.342Z,4476
2018-11-06T13:34:20.415Z,4368
2018-11-06T13:34:52.511Z,4192
2018-11-06T13:35:24.588Z,4052
2018-11-06T13:35:56.651Z,3956
2018-11-06T13:36:28.679Z,3924
2018-11-06T13:37:00.764Z,3928
2018-11-06T13:37:32.884Z,3964
2018-11-06T13:38:04.914Z,4016
2018-11-06T13:38:36.989Z,4048
2018-11-06T13:39:09.081Z,4072
2018-11-06T13:39:41.123Z,4092
2018-11-06T13:40:13.215Z,4128
2018-11-06T13:40:45.304Z,4148
2018-11-06T13:41:17.348Z,4152
2018-11-06T13:41:49.382Z,4168
2018-11-06T13:42:21.670Z,4204
2018-11-06T13:42:53.947Z,4296
2018-11-06T13:43:26.296Z,4384
2018-11-06T13:43:58.697Z,4448
2018-11-06T13:44:30.984Z,4564
2018-11-06T13:45:02.698Z,4748
2018-11-06T13:45:34.717Z,4860
2018-11-06T13:46:06.685Z,4952
2018-11-06T13:46:38.791Z,4968
2018-11-06T13:47:10.864Z,5036
2018-11-06T13:47:42.935Z,4860
2018-11-06T13:48:14.996Z,4700
2018-11-06T13:48:47.071Z,4756
2018-11-06T13:49:19.135Z,4960
2018-11-06T13:49:51.140Z,5048
2018-11-06T13:50:23.200Z,5108
2018-11-06T13:50:55.259Z,5204
2018-11-06T13:51:27.294Z,5252
2018-11-06T13:51:59.450Z,5244
2018-11-06T13:52:31.462Z,5292
2018-11-06T13:53:03.514Z,5344
2018-11-06T13:53:35.572Z,5408
2018-11-06T13:54:07.607Z,5956
2018-11-06T13:54:39.707Z,6212
2018-11-06T13:55:11.731Z,6020
2018-11-06T13:55:43.768Z,5820
2018-11-06T13:56:15.899Z,5856
2018-11-06T13:56:48.030Z,6044
2018-11-06T13:57:20.094Z,6080
2018-11-06T13:57:52.182Z,5604
2018-11-06T13:58:24.261Z,5672
2018-11-06T13:58:56.327Z,5684
2018-11-06T13:59:28.345Z,5868
2018-11-06T14:00:00.500Z,6224
2018-11-06T14:00:32.654Z,6680
2018-11-06T14:01:04.883Z,7300
2018-11-06T14:01:36.922Z,6748
2018-11-06T14:02:09.000Z,7200
2018-11-06T14:02:41.073Z,6992
2018-11-06T14:03:13.156Z,6016
2018-11-06T14:03:45.184Z,5212
2018-11-06T14:04:17.328Z,4932
2018-11-06T14:04:49.376Z,4912
2018-11-06T14:05:21.468Z,4800
2018-11-06T14:05:53.554Z,4324
2018-11-06T14:06:25.624Z,3912
2018-11-06T14:06:57.664Z,3604
2018-11-06T14:07:29.728Z,3440
2018-11-06T14:08:01.777Z,3308
2018-11-06T14:08:33.843Z,3220
2018-11-06T14:09:05.918Z,3116
2018-11-06T14:09:37.995Z,3116
2018-11-06T14:10:10.096Z,3096
2018-11-06T14:10:42.160Z,3080
2018-11-06T14:11:14.207Z,3020
2018-11-06T14:11:46.241Z,2900
2018-11-06T14:12:18.338Z,2796
2018-11-06T14:12:50.407Z,2720
2018-11-06T14:13:22.438Z,2692
2018-11-06T14:13:54.490Z,2672
2018-11-06T14:14:26.512Z,2632
2018-11-06T14:14:58.554Z,2588
2018-11-06T14:15:30.623Z,2576
2018-11-06T14:16:02.673Z,2564
2018-11-06T14:16:34.719Z,2556
2018-11-06T14:17:06.824Z,2552
2018-11-06T14:17:38.887Z,2544
2018-11-06T14:18:10.993Z,2532
2018-11-06T14:18:43.045Z,2528
2018-11-06T14:19:15.147Z,2520
2018-11-06T14:19:47.214Z,2536
2018-11-06T14:20:19.301Z,2528
2018-11-06T14:20:51.386Z,2504
2018-11-06T14:21:23.446Z,2456
2018-11-06T14:21:55.529Z,2368
2018-11-06T14:22:27.691Z,2296
2018-11-06T14:22:59.751Z,2260
2018-11-06T14:23:31.813Z,2236
2018-11-06T14:24:03.880Z,2212
2018-11-06T14:24:35.942Z,2188
2018-11-06T14:25:08.004Z,2168
2018-11-06T14:25:40.086Z,2148
2018-11-06T14:26:12.196Z,2136
2018-11-06T14:26:44.248Z,2116
2018-11-06T14:27:16.423Z,2096
2018-11-06T14:27:48.425Z,2076
2018-11-06T14:28:20.518Z,2052
2018-11-06T14:28:52.595Z,2012
2018-11-06T14:29:24.637Z,1964
2018-11-06T14:29:56.780Z,1920
2018-11-06T14:30:28.823Z,1884
2018-11-06T14:31:00.926Z,1860
2018-11-06T14:31:33.075Z,1828
2018-11-06T14:32:05.119Z,1788
2018-11-06T14:32:37.212Z,1748
2018-11-06T14:33:09.306Z,1708
2018-11-06T14:33:41.385Z,1660
2018-11-06T14:34:13.420Z,1624
2018-11-06T14:34:45.511Z,1588
2018-11-06T14:35:17.539Z,1560
2018-11-06T14:35:49.699Z,1532
2018-11-06T14:36:21.731Z,1500
2018-11-06T14:36:53.801Z,1472
2018-11-06T14:37:25.853Z,1448
2018-11-06T14:37:57.971Z,1424
2018-11-06T14:38:30.042Z,1396
2018-11-06T14:39:02.108Z,1372
2018-11-06T14:39:34.244Z,1352
2018-11-06T14:40:06.322Z,1332
2018-11-06T14:40:38.419Z,1312
2018-11-06T14:41:10.491Z,1288
2018-11-06T14:41:42.548Z,1272
2018-11-06T14:42:14.628Z,1260
2018-11-06T14:42:46.808Z,1240
2018-11-06T14:43:18.827Z,1228
2018-11-06T14:43:50.878Z,1216
2018-11-06T14:44:22.973Z,1200
2018-11-06T14:44:55.045Z,1192
2018-11-06T14:45:27.125Z,1176
2018-11-06T14:45:59.211Z,1156
2018-11-06T14:46:31.286Z,1140
2018-11-06T14:47:03.341Z,1124
2018-11-06T14:47:35.443Z,1108
2018-11-06T14:48:07.526Z,1092
2018-11-06T14:48:40.595Z,1080
2018-11-06T14:49:12.689Z,1064
2018-11-06T14:49:44.666Z,1052
2018-11-06T14:50:16.793Z,1040
2018-11-06T14:50:49.018Z,1032
2018-11-06T14:51:21.073Z,1020
2018-11-06T14:51:53.155Z,1012
2018-11-06T14:52:25.203Z,1004
2018-11-06T14:52:57.241Z,1000
2018-11-06T14:53:29.336Z,988
2018-11-06T14:54:01.384Z,980
2018-11-06T14:54:33.477Z,972
2018-11-06T14:55:05.546Z,960
2018-11-06T14:55:37.561Z,952
2018-11-06T14:56:10.024Z,944
2018-11-06T14:56:41.960Z,936
2018-11-06T14:57:14.005Z,924
2018-11-06T14:57:46.079Z,916
2018-11-06T14:58:18.175Z,908
2018-11-06T14:58:50.253Z,900
2018-11-06T14:59:22.357Z,892
2018-11-06T14:59:54.403Z,880
2018-11-06T15:00:26.446Z,868
2018-11-06T15:00:58.517Z,856
2018-11-06T15:01:30.602Z,848
2018-11-06T15:02:02.671Z,836
2018-11-06T15:02:34.758Z,824
2018-11-06T15:03:06.846Z,812
2018-11-06T15:03:38.913Z,800
2018-11-06T15:04:11.011Z,784
2018-11-06T15:04:43.040Z,772
2018-11-06T15:05:15.111Z,764
2018-11-06T15:05:47.229Z,748
2018-11-06T15:06:19.340Z,732
2018-11-06T15:06:51.429Z,720
2018-11-06T15:07:23.514Z,704
2018-11-06T15:07:55.618Z,692
2018-11-06T15:08:27.703Z,676
2018-11-06T15:08:59.797Z,660
2018-11-06T15:09:31.817Z,648
2018-11-06T15:10:03.891Z,636
2018-11-06T15:10:35.906Z,616
2018-11-06T15:11:08.010Z,604
2018-11-06T15:11:40.052Z,588
2018-11-06T15:12:12.133Z,580
2018-11-06T15:12:44.465Z,564
2018-11-06T15:13:16.592Z,552
2018-11-06T15:13:48.650Z,540
2018-11-06T15:14:20.728Z,528
2018-11-06T15:14:52.850Z,512
2018-11-06T15:15:24.907Z,508
2018-11-06T15:15:56.997Z,496
2018-11-06T15:16:29.069Z,484
2018-11-06T15:17:01.139Z,472
2018-11-06T15:17:33.230Z,464
2018-11-06T15:18:05.320Z,452
2018-11-06T15:18:37.337Z,440
2018-11-06T15:19:09.424Z,428
2018-11-06T15:19:41.460Z,420
2018-11-06T15:20:13.552Z,404
2018-11-06T15:20:45.653Z,392
2018-11-06T15:21:17.776Z,380
2018-11-06T15:21:49.877Z,368
2018-11-06T15:22:21.939Z,356
2018-11-06T15:22:54.042Z,344
2018-11-06T15:23:26.125Z,332
2018-11-06T15:23:58.184Z,320
2018-11-06T15:24:30.255Z,308
2018-11-06T15:25:02.314Z,300
2018-11-06T15:25:34.384Z,288
2018-11-06T15:26:06.434Z,276
2018-11-06T15:26:38.761Z,268
2018-11-06T15:27:10.744Z,256
2018-11-06T15:27:42.856Z,252
2018-11-06T15:28:14.917Z,240
2018-11-06T15:28:46.992Z,232
2018-11-06T15:29:19.081Z,224
2018-11-06T15:29:51.136Z,216
2018-11-06T15:30:23.180Z,208
2018-11-06T15:30:55.233Z,200
2018-11-06T15:31:27.295Z,192
2018-11-06T15:31:59.385Z,184
2018-11-06T15:32:31.470Z,176
2018-11-06T15:33:03.550Z,172
2018-11-06T15:33:35.628Z,164
2018-11-06T15:34:07.695Z,156
2018-11-06T15:34:39.814Z,152
2018-11-06T15:35:11.882Z,148
2018-11-06T15:35:43.925Z,140
2018-11-06T15:36:16.007Z,136
2018-11-06T15:36:48.107Z,132
2018-11-06T15:37:20.191Z,124
2018-11-06T15:37:52.282Z,124
2018-11-06T15:38:24.358Z,120
2018-11-06T15:38:56.431Z,116
2018-11-06T15:39:28.531Z,112
2018-11-06T15:40:00.598Z,108
2018-11-06T15:40:32.654Z,104
2018-11-06T15:41:04.975Z,100
2018-11-06T15:41:37.507Z,100
2018-11-06T15:42:09.615Z,92
2018-11-06T15:42:41.534Z,88
2018-11-06T15:43:13.588Z,84
2018-11-06T15:43:45.693Z,84
2018-11-06T15:44:17.761Z,76
2018-11-06T15:44:49.791Z,72
2018-11-06T15:45:21.872Z,72
2018-11-06T15:45:53.926Z,68
2018-11-06T15:46:26.019Z,64
2018-11-06T15:46:58.116Z,60
2018-11-06T15:47:30.190Z,56
2018-11-06T15:48:02.286Z,56
2018-11-06T15:48:34.482Z,52
2018-11-06T15:49:06.501Z,52
2018-11-06T15:49:38.531Z,48
2018-11-06T15:50:10.602Z,48
2018-11-06T15:50:42.661Z,44
2018-11-06T15:51:14.715Z,48
2018-11-06T15:51:46.811Z,44
2018-11-06T15:52:18.865Z,44
2018-11-06T15:52:50.914Z,40
2018-11-06T15:53:22.952Z,40
2018-11-06T15:53:55.022Z,40
2018-11-06T15:54:27.130Z,36
2018-11-06T15:54:59.184Z,32
2018-11-06T15:55:31.219Z,32
2018-11-06T15:56:03.265Z,28
2018-11-06T15:56:35.327Z,28
2018-11-06T15:57:07.400Z,24
2018-11-06T15:57:39.480Z,24
2018-11-06T15:58:11.518Z,24
2018-11-06T15:58:43.585Z,24
2018-11-06T15:59:15.651Z,20
2018-11-06T15:59:47.716Z,24
2018-11-06T16:00:19.780Z,20
2018-11-06T16:00:51.928Z,16
2018-11-06T16:01:23.938Z,20
2018-11-06T16:01:56.152Z,16
2018-11-06T16:02:28.235Z,16
2018-11-06T16:03:00.317Z,12
2018-11-06T16:03:32.396Z,16
2018-11-06T16:04:04.454Z,12
2018-11-06T16:04:36.510Z,12
2018-11-06T16:05:08.608Z,8
2018-11-06T16:05:40.694Z,8
2018-11-06T16:06:12.737Z,12
2018-11-06T16:06:44.758Z,12
2018-11-06T16:07:16.853Z,8
2018-11-06T16:07:48.935Z,8
2018-11-06T16:08:21.070Z,8
2018-11-06T16:08:53.109Z,8
2018-11-06T16:09:25.164Z,8
2018-11-06T16:09:57.262Z,4
2018-11-06T16:10:29.345Z,4
2018-11-06T16:11:01.438Z,4
2018-11-06T16:11:33.483Z,4
2018-11-06T16:12:05.543Z,4
2018-11-06T16:12:37.642Z,4
2018-11-06T16:13:09.738Z,4
2018-11-06T16:13:41.821Z,4
2018-11-06T16:14:13.924Z,0
2018-11-06T16:14:45.999Z,4
2018-11-06T16:15:18.125Z,4
2018-11-06T16:15:50.251Z,4
2018-11-06T16:16:22.331Z,4
2018-11-06T16:16:54.397Z,4
2018-11-06T16:17:26.489Z,0
2018-11-06T16:17:58.565Z,0
2018-11-06T16:18:30.640Z,0
2018-11-06T16:19:02.726Z,0
2018-11-06T16:19:34.831Z,0
2018-11-06T16:20:06.857Z,0
2018-11-06T16:20:39.006Z,0
2018-11-06T16:21:10.994Z,0
2018-11-06T16:21:43.040Z,0
2018-11-06T16:22:15.122Z,0
2018-11-06T16:22:47.228Z,0
2018-11-06T16:23:19.254Z,0
2018-11-06T16:23:51.314Z,0
2018-11-06T16:24:23.360Z,0
2018-11-06T16:24:55.464Z,0
2018-11-06T16:25:27.560Z,0
2018-11-06T16:25:59.668Z,0